createdAt,value
2018-09-24T00:03:51.269Z,91.85
2018-09-24T00:09:12.652Z,91.90
2018-09-24T00:14:31.895Z,91.39
2018-09-24T00:19:50.623Z,91.51
2018-09-24T00:25:09.517Z,91.01
2018-09-24T00:30:28.452Z,90.96
2018-09-24T00:35:47.195Z,91.00
2018-09-24T00:41:06.122Z,91.00
2018-09-24T00:46:24.995Z,90.93
2018-09-24T00:51:43.942Z,91.32
2018-09-24T00:57:02.738Z,91.68
2018-09-24T01:02:21.771Z,92.04
2018-09-24T01:07:41.091Z,92.05
2018-09-24T01:12:59.872Z,92.78
2018-09-24T01:18:18.685Z,92.34
2018-09-24T01:23:37.541Z,92.41
2018-09-24T01:28:56.322Z,92.73
2018-09-24T01:34:15.261Z,92.03
2018-09-24T01:39:35.029Z,92.54
2018-09-24T01:44:55.467Z,92.17
2018-09-24T01:50:14.341Z,91.75
2018-09-24T01:55:33.097Z,91.60
2018-09-24T02:00:51.853Z,91.55
2018-09-24T02:06:10.863Z,91.83
2018-09-24T02:11:30.728Z,91.77
2018-09-24T02:16:49.384Z,91.92
2018-09-24T02:22:08.411Z,91.90
2018-09-24T02:27:27.635Z,92.23
2018-09-24T02:32:46.429Z,92.62
2018-09-24T02:38:05.284Z,92.48
2018-09-24T02:43:25.548Z,92.10
2018-09-24T02:48:44.538Z,91.39
2018-09-24T02:54:03.321Z,91.37
2018-09-24T02:59:22.264Z,90.95
2018-09-24T03:04:41.244Z,91.58
2018-09-24T03:10:00.133Z,90.98
2018-09-24T03:15:19.314Z,91.05
2018-09-24T03:20:40.301Z,91.36
2018-09-24T03:25:59.790Z,91.03
2018-09-24T03:31:20.961Z,90.92
2018-09-24T03:36:40.980Z,91.32
2018-09-24T03:41:59.808Z,91.32
2018-09-24T03:47:19.300Z,91.61
2018-09-24T03:52:38.186Z,91.72
2018-09-24T03:57:57.188Z,91.57
2018-09-24T04:03:15.977Z,91.39
2018-09-24T04:08:39.756Z,91.96
2018-09-24T04:14:03.469Z,91.52
2018-09-24T04:19:27.294Z,91.21
2018-09-24T04:24:51.312Z,90.46
2018-09-24T04:30:15.001Z,90.83
2018-09-24T04:35:38.926Z,91.00
2018-09-24T04:41:02.902Z,91.00
2018-09-24T04:46:27.006Z,90.46
2018-09-24T04:51:51.020Z,90.80
2018-09-24T04:57:14.923Z,90.82
2018-09-24T05:02:39.615Z,90.30
2018-09-24T05:08:03.381Z,89.87
2018-09-24T05:13:27.162Z,89.57
2018-09-24T05:18:50.827Z,89.20
2018-09-24T05:24:14.623Z,89.35
2018-09-24T05:35:25.743Z,89.38
2018-09-24T05:40:49.540Z,90.13
2018-09-24T05:46:14.101Z,88.95
2018-09-24T05:51:37.831Z,88.69
2018-09-24T05:57:02.380Z,88.58
2018-09-24T06:02:26.197Z,89.01
2018-09-24T06:07:50.065Z,88.15
2018-09-24T06:13:14.114Z,88.36
2018-09-24T06:18:38.019Z,87.97
2018-09-24T06:24:10.851Z,87.55
2018-09-24T06:29:34.682Z,87.36
2018-09-24T06:34:58.564Z,87.20
2018-09-24T06:40:22.549Z,86.87
2018-09-24T06:45:46.542Z,86.75
2018-09-24T06:51:10.558Z,85.83
2018-09-24T06:56:34.554Z,86.12
2018-09-24T07:01:58.372Z,85.46
2018-09-24T07:07:22.222Z,85.33
2018-09-24T07:12:46.119Z,84.60
2018-09-24T07:18:09.928Z,83.63
2018-09-24T07:23:33.718Z,82.62
2018-09-24T07:28:57.440Z,83.17
2018-09-24T07:34:21.161Z,82.60
2018-09-24T07:39:45.111Z,80.65
2018-09-24T07:45:08.847Z,81.28
2018-09-24T07:50:32.567Z,81.33
2018-09-24T07:55:56.275Z,81.42
2018-09-24T08:01:20.368Z,79.54
2018-09-24T08:06:44.248Z,80.11
2018-09-24T08:12:08.195Z,78.60
2018-09-24T08:17:31.983Z,78.93
2018-09-24T08:22:55.740Z,79.31
2018-09-24T08:28:19.850Z,79.13
2018-09-24T08:33:43.607Z,79.82
2018-09-24T08:39:07.276Z,78.60
2018-09-24T08:44:31.259Z,78.88
2018-09-24T08:49:55.011Z,79.13
2018-09-24T08:55:18.933Z,79.27
2018-09-24T09:00:42.788Z,78.46
2018-09-24T09:06:06.665Z,76.61
2018-09-24T09:11:30.475Z,75.82
2018-09-24T09:16:54.261Z,73.19
2018-09-24T09:22:18.070Z,71.56
2018-09-24T09:27:41.789Z,70.50
2018-09-24T09:33:05.757Z,70.60
2018-09-24T09:38:29.688Z,69.36
2018-09-24T09:43:53.624Z,68.72
2018-09-24T09:49:17.379Z,69.26
2018-09-24T09:54:41.308Z,69.35
2018-09-24T10:00:05.242Z,68.24
2018-09-24T10:05:29.196Z,64.23
2018-09-24T10:10:53.241Z,64.93
2018-09-24T10:16:17.394Z,65.59
2018-09-24T10:21:41.354Z,64.06
2018-09-24T10:27:05.479Z,63.13
2018-09-24T10:32:29.321Z,58.51
2018-09-24T10:37:53.386Z,59.46
2018-09-24T10:43:17.294Z,59.25
2018-09-24T10:48:41.133Z,60.77
2018-09-24T10:54:04.880Z,61.49
2018-09-24T10:59:28.916Z,61.92
2018-09-24T11:04:52.889Z,62.60
2018-09-24T11:10:16.775Z,64.77
2018-09-24T11:15:40.765Z,63.96
2018-09-24T11:21:04.655Z,64.37
2018-09-24T11:37:40.370Z,61.32
2018-09-24T11:43:04.428Z,60.44
2018-09-24T11:48:28.387Z,58.94
2018-09-24T11:53:52.278Z,56.23
2018-09-24T11:59:16.233Z,54.18
2018-09-24T12:04:40.063Z,55.90
2018-09-24T12:10:04.015Z,57.60
2018-09-24T12:15:28.608Z,55.39
2018-09-24T12:20:52.671Z,54.46
2018-09-24T12:26:16.433Z,53.04
2018-09-24T12:31:40.176Z,52.78
2018-09-24T12:37:04.024Z,53.36
2018-09-24T12:42:27.862Z,56.74
2018-09-24T12:47:51.782Z,58.83
2018-09-24T12:53:15.593Z,58.69
2018-09-24T12:58:39.504Z,57.35
2018-09-24T13:04:03.140Z,55.99
2018-09-24T13:09:27.086Z,54.84
2018-09-24T13:14:50.903Z,54.74
2018-09-24T13:20:14.683Z,53.81
2018-09-24T13:25:38.476Z,55.10
2018-09-24T13:31:02.304Z,54.95
2018-09-24T13:36:26.340Z,53.77
2018-09-24T13:41:50.236Z,54.34
2018-09-24T13:53:01.388Z,57.11
2018-09-24T13:58:25.360Z,58.61
2018-09-24T14:03:49.198Z,58.44
2018-09-24T14:09:13.596Z,59.67
2018-09-24T14:14:37.373Z,60.96
2018-09-24T14:20:01.392Z,70.29
2018-09-24T14:25:25.336Z,75.78
2018-09-24T14:30:49.283Z,75.12
2018-09-24T14:36:13.500Z,76.16
2018-09-24T14:41:37.514Z,76.87
2018-09-24T14:47:01.514Z,77.70
2018-09-24T14:52:25.397Z,77.46
2018-09-24T14:57:49.081Z,76.49
2018-09-24T15:03:12.888Z,76.69
2018-09-24T15:08:36.790Z,74.30
2018-09-24T15:14:00.853Z,72.71
2018-09-24T15:19:24.584Z,68.92
2018-09-24T15:24:48.521Z,71.35
2018-09-24T15:30:12.267Z,65.66
2018-09-24T15:35:36.246Z,67.62
2018-09-24T15:41:00.288Z,66.87
2018-09-24T15:46:24.278Z,69.24
2018-09-24T15:51:48.194Z,66.14
2018-09-24T15:57:11.981Z,67.29
2018-09-24T16:02:35.768Z,65.32
2018-09-24T16:07:59.530Z,65.37
2018-09-24T16:13:23.206Z,64.54
2018-09-24T16:18:47.746Z,62.26
2018-09-24T16:24:11.751Z,61.72
2018-09-24T16:29:35.649Z,62.27
2018-09-24T16:34:59.866Z,63.04
2018-09-24T16:40:23.775Z,64.06
2018-09-24T16:45:47.707Z,65.36
2018-09-24T16:51:11.623Z,67.33
2018-09-24T16:56:35.578Z,68.55
2018-09-24T17:01:59.651Z,67.41
2018-09-24T17:07:23.564Z,67.51
2018-09-24T17:12:47.416Z,69.73
2018-09-24T17:18:11.496Z,69.52
2018-09-24T17:23:35.314Z,71.50
2018-09-24T17:28:59.252Z,70.56
2018-09-24T17:34:23.232Z,71.27
2018-09-24T17:39:47.168Z,69.04
2018-09-24T17:45:11.317Z,71.42
2018-09-24T17:50:35.051Z,70.52
2018-09-24T17:55:58.965Z,71.63
2018-09-24T18:01:23.117Z,74.54
2018-09-24T18:06:47.361Z,76.83
2018-09-24T18:12:11.326Z,78.87
2018-09-24T18:17:35.192Z,78.13
2018-09-24T18:22:59.114Z,79.55
2018-09-24T18:28:22.984Z,80.97
2018-09-24T18:33:47.030Z,80.54
2018-09-24T18:39:13.972Z,81.89
2018-09-24T18:44:37.813Z,81.55
2018-09-24T18:50:01.872Z,83.23
2018-09-24T18:55:25.574Z,82.02
2018-09-24T19:00:49.538Z,82.35
2018-09-24T19:06:13.575Z,81.83
2018-09-24T19:11:37.531Z,83.05
2018-09-24T19:17:01.307Z,83.12
2018-09-24T19:22:25.200Z,84.13
2018-09-24T19:27:49.109Z,83.80
2018-09-24T19:33:13.147Z,83.73
2018-09-24T19:38:37.281Z,85.54
2018-09-24T19:44:33.341Z,86.25
2018-09-24T19:49:57.184Z,85.21
2018-09-24T19:55:21.028Z,85.76
2018-09-24T20:00:44.854Z,84.71
2018-09-24T20:06:08.809Z,84.72
2018-09-24T20:11:32.692Z,84.21
2018-09-24T20:16:56.740Z,85.43
2018-09-24T20:22:20.611Z,86.53
2018-09-24T20:27:44.566Z,86.02
2018-09-24T20:33:08.510Z,86.14
2018-09-24T20:38:32.498Z,86.43
2018-09-24T20:43:56.298Z,86.79
2018-09-24T20:49:20.159Z,86.92
2018-09-24T20:54:43.866Z,86.87
2018-09-24T21:00:07.826Z,87.35
2018-09-24T21:05:31.838Z,88.74
2018-09-24T21:10:55.734Z,87.35
2018-09-24T21:16:19.421Z,87.58
2018-09-24T21:21:43.372Z,88.19
2018-09-24T21:27:07.147Z,87.43
2018-09-24T21:32:30.938Z,87.89
2018-09-24T21:37:54.720Z,89.08
2018-09-24T21:43:18.515Z,88.43
2018-09-24T21:48:43.413Z,88.03
2018-09-24T21:54:07.279Z,88.66
2018-09-24T21:59:31.120Z,87.94
2018-09-24T22:04:54.745Z,87.70
2018-09-24T22:10:18.671Z,87.83
2018-09-24T22:15:42.388Z,87.70
2018-09-24T22:21:06.381Z,88.11
2018-09-24T22:26:30.319Z,88.09
2018-09-24T22:31:54.061Z,87.83
2018-09-24T22:37:18.044Z,87.32
2018-09-24T22:42:41.908Z,87.95
2018-09-24T22:48:05.802Z,88.72
2018-09-24T22:53:29.772Z,89.45
2018-09-24T22:58:53.583Z,90.20
2018-09-24T23:04:17.296Z,90.46
2018-09-24T23:09:41.171Z,89.20
2018-09-24T23:15:04.885Z,88.61
2018-09-24T23:20:28.613Z,89.01
2018-09-24T23:25:53.134Z,88.91
2018-09-24T23:31:16.892Z,87.96
2018-09-24T23:36:40.658Z,87.30
2018-09-24T23:42:05.136Z,88.22
2018-09-24T23:47:28.941Z,88.91
2018-09-24T23:52:52.827Z,88.40
2018-09-24T23:58:16.801Z,88.15
